createdAt,value
2019-02-10T04:01:37.777Z,52.85
2019-02-10T04:02:37.966Z,51.08
2019-02-10T04:03:38.148Z,56.24
2019-02-10T04:04:38.323Z,63.16
2019-02-10T04:05:38.509Z,52.53
2019-02-10T04:06:38.671Z,50.92
2019-02-10T04:07:38.834Z,52.05
2019-02-10T04:08:38.996Z,47.70
2019-02-10T04:09:39.136Z,52.21
2019-02-10T04:10:39.339Z,51.08
2019-02-10T04:11:39.491Z,50.60
2019-02-10T04:12:39.650Z,49.47
2019-02-10T04:13:39.809Z,49.79
2019-02-10T04:14:39.968Z,49.31
2019-02-10T04:15:40.140Z,50.76
2019-02-10T04:16:40.298Z,50.92
2019-02-10T04:17:40.457Z,49.47
2019-02-10T04:18:40.611Z,51.88
2019-02-10T04:19:40.764Z,48.18
2019-02-10T04:20:40.930Z,48.02
2019-02-10T04:21:41.090Z,46.08
2019-02-10T04:22:41.234Z,47.86
2019-02-10T04:23:41.378Z,45.60
2019-02-10T04:24:41.529Z,46.73
2019-02-10T04:25:41.674Z,49.47
2019-02-10T04:26:41.833Z,48.02
2019-02-10T04:27:41.962Z,46.73
2019-02-10T04:28:42.113Z,49.63
2019-02-10T04:29:42.254Z,49.15
2019-02-10T04:30:42.401Z,49.47
2019-02-10T04:31:42.559Z,49.31
2019-02-10T04:32:42.693Z,51.40
2019-02-10T04:33:42.839Z,49.31
2019-02-10T04:34:42.980Z,49.31
2019-02-10T04:35:43.125Z,49.95
2019-02-10T04:36:43.282Z,47.86
2019-02-10T04:37:46.090Z,48.34
2019-02-10T04:38:43.560Z,47.21
2019-02-10T04:39:43.700Z,50.76
2019-02-10T04:40:43.838Z,50.27
2019-02-10T04:41:43.978Z,49.31
2019-02-10T04:42:44.120Z,48.98
2019-02-10T04:43:44.251Z,48.98
2019-02-10T04:44:44.392Z,47.05
2019-02-10T04:45:44.528Z,48.34
2019-02-10T04:46:44.718Z,48.02
2019-02-10T04:47:44.857Z,49.15
2019-02-10T04:48:44.999Z,49.47
2019-02-10T04:49:45.133Z,48.66
2019-02-10T04:50:45.274Z,49.95
2019-02-10T04:51:45.426Z,47.70
2019-02-10T04:52:45.563Z,48.02
2019-02-10T04:53:45.707Z,48.50
2019-02-10T04:54:45.853Z,48.50
2019-02-10T04:55:46.008Z,45.12
2019-02-10T04:56:46.167Z,48.18
2019-02-10T04:57:46.310Z,48.50
2019-02-10T04:58:46.449Z,47.21
2019-02-10T04:59:46.588Z,52.53
2019-02-10T05:00:46.703Z,48.50
2019-02-10T05:01:47.120Z,48.82
2019-02-10T05:02:46.987Z,50.27
2019-02-10T05:03:47.133Z,48.98
2019-02-10T05:04:47.272Z,48.98
2019-02-10T05:05:47.406Z,48.66
2019-02-10T05:06:47.552Z,50.11
2019-02-10T05:07:54.317Z,50.11
2019-02-10T05:08:48.832Z,46.73
2019-02-10T05:09:47.974Z,48.82
2019-02-10T05:10:48.099Z,53.33
2019-02-10T05:11:48.254Z,50.76
2019-02-10T05:12:48.403Z,53.98
2019-02-10T05:13:48.543Z,60.10
2019-02-10T05:14:48.678Z,49.79
2019-02-10T05:15:48.808Z,46.89
2019-02-10T05:16:48.950Z,50.27
2019-02-10T05:17:49.108Z,47.53
2019-02-10T05:18:49.247Z,47.53
2019-02-10T05:19:49.380Z,51.72
2019-02-10T05:20:49.516Z,51.08
2019-02-10T05:21:49.650Z,58.33
2019-02-10T05:22:49.798Z,52.53
2019-02-10T05:23:49.945Z,51.56
2019-02-10T05:24:50.079Z,53.01
2019-02-10T05:25:50.213Z,51.56
2019-02-10T05:26:50.342Z,53.17
2019-02-10T05:27:50.483Z,58.17
2019-02-10T05:28:50.615Z,52.37
2019-02-10T05:29:50.745Z,53.17
2019-02-10T05:30:50.877Z,53.66
2019-02-10T05:31:51.006Z,54.62
2019-02-10T05:32:51.145Z,52.37
2019-02-10T05:33:51.267Z,53.82
2019-02-10T05:34:51.391Z,52.21
2019-02-10T05:35:51.522Z,52.37
2019-02-10T05:36:51.648Z,52.85
2019-02-10T05:37:51.783Z,51.72
2019-02-10T05:38:51.904Z,53.66
2019-02-10T05:39:52.028Z,53.33
2019-02-10T05:40:52.161Z,54.62
2019-02-10T05:41:52.285Z,54.79
2019-02-10T05:42:52.430Z,55.75
2019-02-10T05:43:52.561Z,52.85
2019-02-10T05:44:52.697Z,54.79
2019-02-10T05:45:53.604Z,52.69
2019-02-10T05:46:53.962Z,52.05
2019-02-10T05:47:53.138Z,52.53
2019-02-10T05:48:53.275Z,51.40
2019-02-10T05:49:53.412Z,50.92
2019-02-10T05:50:53.558Z,53.66
2019-02-10T05:51:53.697Z,53.17
2019-02-10T05:52:54.601Z,52.69
2019-02-10T05:53:53.990Z,53.33
2019-02-10T05:54:54.127Z,53.66
2019-02-10T05:55:54.261Z,53.50
2019-02-10T05:56:54.396Z,51.40
2019-02-10T05:57:54.544Z,53.50
2019-02-10T05:58:54.711Z,52.69
2019-02-10T05:59:54.865Z,50.76
2019-02-10T06:00:55.004Z,49.79
2019-02-10T06:01:55.123Z,51.88
2019-02-10T06:02:55.280Z,51.72
2019-02-10T06:03:55.415Z,51.40
2019-02-10T06:04:55.565Z,55.11
2019-02-10T06:05:55.696Z,48.50
2019-02-10T06:06:55.826Z,50.76
2019-02-10T06:07:55.981Z,52.85
2019-02-10T06:08:56.128Z,57.52
2019-02-10T06:09:56.253Z,52.53
2019-02-10T06:10:56.390Z,53.17
2019-02-10T06:11:56.529Z,50.76
2019-02-10T06:12:56.665Z,57.52
2019-02-10T06:13:56.811Z,54.14
2019-02-10T06:14:56.951Z,55.11
2019-02-10T06:15:57.082Z,56.40
2019-02-10T06:16:57.221Z,55.75
2019-02-10T06:17:57.359Z,53.33
2019-02-10T06:18:58.113Z,52.53
2019-02-10T06:19:58.604Z,57.85
2019-02-10T06:20:57.745Z,53.17
2019-02-10T06:21:57.861Z,50.92
2019-02-10T06:22:58.003Z,50.76
2019-02-10T06:23:58.159Z,50.76
2019-02-10T06:24:58.303Z,51.40
2019-02-10T06:25:58.444Z,52.21
2019-02-10T06:26:58.579Z,58.33
2019-02-10T06:27:58.750Z,58.97
2019-02-10T06:28:58.911Z,52.85
2019-02-10T06:29:59.053Z,51.88
2019-02-10T06:30:59.174Z,51.40
2019-02-10T06:31:59.321Z,74.12
2019-02-10T06:32:59.442Z,66.39
2019-02-10T06:33:59.592Z,70.25
2019-02-10T06:34:59.722Z,80.08
2019-02-10T06:35:59.866Z,70.58
2019-02-10T06:37:00.007Z,79.44
2019-02-10T06:38:00.153Z,71.70
2019-02-10T06:39:00.295Z,78.63
2019-02-10T06:40:00.435Z,71.06
2019-02-10T06:41:00.570Z,82.02
2019-02-10T06:42:00.717Z,70.74
2019-02-10T06:43:00.859Z,75.73
2019-02-10T06:44:00.994Z,68.80
2019-02-10T06:45:01.147Z,76.38
2019-02-10T06:46:01.284Z,65.58
2019-02-10T06:47:01.421Z,65.10
2019-02-10T06:48:01.536Z,60.26
2019-02-10T06:49:01.672Z,71.38
2019-02-10T06:53:35.442Z,67.84
2019-02-10T06:54:35.623Z,71.38
2019-02-10T06:55:35.787Z,68.64
2019-02-10T06:56:35.963Z,73.80
2019-02-10T06:57:36.126Z,68.16
2019-02-10T06:58:36.286Z,84.59
2019-02-10T06:59:37.292Z,78.79
2019-02-10T07:00:36.575Z,62.84
2019-02-10T07:01:36.735Z,59.62
2019-02-10T07:02:36.879Z,72.35
2019-02-10T07:03:37.048Z,71.87
2019-02-10T07:04:37.234Z,81.69
2019-02-10T07:05:37.393Z,75.41
2019-02-10T07:06:37.549Z,79.92
2019-02-10T07:08:37.283Z,67.84
2019-02-10T07:09:37.416Z,85.56
2019-02-10T07:10:37.575Z,72.03
2019-02-10T07:11:37.721Z,79.60
2019-02-10T07:12:37.867Z,76.70
2019-02-10T07:13:38.014Z,66.23
2019-02-10T07:14:38.158Z,65.42
2019-02-10T07:15:38.312Z,62.36
2019-02-10T07:16:38.451Z,70.58
2019-02-10T07:17:38.591Z,73.80
2019-02-10T07:18:38.730Z,66.06
2019-02-10T07:19:38.849Z,51.72
2019-02-10T07:20:38.983Z,56.07
2019-02-10T07:21:39.127Z,60.26
2019-02-10T07:22:39.269Z,48.66
2019-02-10T07:23:39.391Z,50.11
2019-02-10T07:24:39.532Z,52.21
2019-02-10T07:25:39.679Z,52.53
2019-02-10T07:26:39.807Z,53.98
2019-02-10T07:27:39.956Z,72.19
2019-02-10T07:28:40.090Z,55.59
2019-02-10T07:29:40.226Z,65.26
2019-02-10T07:30:40.374Z,58.65
2019-02-10T07:31:40.503Z,61.23
2019-02-10T07:32:40.645Z,58.81
2019-02-10T07:33:40.791Z,57.04
2019-02-10T07:34:48.087Z,52.69
2019-02-10T07:35:42.072Z,73.96
2019-02-10T07:36:41.223Z,69.61
2019-02-10T07:37:41.370Z,52.85
2019-02-10T07:38:41.488Z,51.56
2019-02-10T07:39:41.631Z,52.53
2019-02-10T07:40:41.780Z,54.46
2019-02-10T07:41:41.913Z,66.06
2019-02-10T07:42:42.050Z,60.42
2019-02-10T07:43:42.192Z,61.55
2019-02-10T07:44:42.334Z,73.64
2019-02-10T07:45:42.523Z,60.91
2019-02-10T07:46:42.656Z,61.23
2019-02-10T07:47:42.792Z,77.99
2019-02-10T07:48:42.925Z,55.43
2019-02-10T07:49:43.068Z,56.40
2019-02-10T07:50:43.211Z,60.26
2019-02-10T07:51:43.353Z,62.04
2019-02-10T07:52:43.492Z,62.20
2019-02-10T07:53:43.626Z,64.29
2019-02-10T07:54:43.763Z,72.03
2019-02-10T07:55:43.908Z,54.30
2019-02-10T07:56:44.057Z,69.77
2019-02-10T07:57:44.188Z,71.06
2019-02-10T07:58:44.329Z,70.58
2019-02-10T07:59:44.472Z,70.42
2019-02-10T08:00:44.613Z,57.85
2019-02-10T08:01:44.739Z,60.59
2019-02-10T08:02:44.881Z,51.56
2019-02-10T08:03:45.015Z,73.96
2019-02-10T08:04:45.160Z,72.67
2019-02-10T08:05:45.297Z,62.04
2019-02-10T08:06:45.442Z,39.48
2019-02-10T08:07:45.580Z,40.77
2019-02-10T08:08:46.830Z,43.67
2019-02-10T08:09:45.916Z,45.12
2019-02-10T08:10:46.056Z,40.44
2019-02-10T08:11:46.202Z,48.66
2019-02-10T08:12:46.339Z,49.47
2019-02-10T08:13:46.478Z,50.60
2019-02-10T08:14:46.619Z,42.22
2019-02-10T08:15:46.754Z,40.61
2019-02-10T08:16:47.692Z,39.48
2019-02-10T08:17:47.082Z,40.28
2019-02-10T08:18:47.222Z,41.25
2019-02-10T08:19:47.361Z,41.41
2019-02-10T08:20:47.504Z,44.15
2019-02-10T08:21:47.646Z,39.48
2019-02-10T08:22:47.790Z,40.61
2019-02-10T08:23:47.932Z,39.48
2019-02-10T08:24:48.070Z,38.83
2019-02-10T08:25:48.208Z,53.66
2019-02-10T08:26:49.354Z,44.15
2019-02-10T08:27:49.449Z,59.46
2019-02-10T08:28:48.592Z,98.77
2019-02-10T08:29:48.730Z,62.52
2019-02-10T08:30:48.871Z,73.15
2019-02-10T08:31:49.020Z,62.36
2019-02-10T08:32:49.162Z,87.01
2019-02-10T08:33:49.298Z,77.34
2019-02-10T08:34:49.437Z,72.67
2019-02-10T08:35:49.575Z,71.22
2019-02-10T08:36:49.727Z,59.78
2019-02-10T08:37:49.861Z,62.68
2019-02-10T08:38:54.576Z,59.78
2019-02-10T08:39:50.167Z,62.84
2019-02-10T08:40:50.310Z,71.87
2019-02-10T08:41:50.464Z,66.39
2019-02-10T08:42:50.601Z,89.27
2019-02-10T08:43:50.787Z,75.89
2019-02-10T08:44:50.931Z,77.02
2019-02-10T08:45:51.703Z,83.95
2019-02-10T08:46:51.248Z,78.47
2019-02-10T08:47:51.364Z,72.51
2019-02-10T08:48:51.504Z,48.82
2019-02-10T08:49:51.647Z,46.25
2019-02-10T08:50:51.768Z,63.81
2019-02-10T08:51:51.916Z,78.96
2019-02-10T08:53:33.099Z,79.92
2019-02-10T08:54:33.262Z,85.72
2019-02-10T08:55:33.425Z,80.89
2019-02-10T08:56:33.592Z,62.52
2019-02-10T08:57:33.764Z,79.76
2019-02-10T08:58:33.940Z,72.03
2019-02-10T08:59:34.167Z,57.04
2019-02-10T09:00:34.335Z,102.32
2019-02-10T09:01:34.505Z,76.86
2019-02-10T09:02:34.686Z,71.06
2019-02-10T09:03:34.849Z,77.83
2019-02-10T09:04:35.012Z,107.15
2019-02-10T09:05:35.178Z,75.89
2019-02-10T09:06:35.336Z,98.61
2019-02-10T09:07:35.498Z,81.05
2019-02-10T09:08:35.662Z,78.63
2019-02-10T09:09:35.833Z,72.51
2019-02-10T09:10:35.993Z,65.42
2019-02-10T09:11:36.167Z,69.29
2019-02-10T09:12:36.338Z,60.91
2019-02-10T09:13:36.503Z,62.84
2019-02-10T09:14:36.661Z,71.54
2019-02-10T09:15:36.824Z,66.39
2019-02-10T09:16:36.984Z,56.72
2019-02-10T09:17:37.153Z,74.44
2019-02-10T09:18:37.301Z,78.96
2019-02-10T09:19:37.462Z,70.58
2019-02-10T09:20:37.609Z,51.56
2019-02-10T09:21:37.841Z,66.23
2019-02-10T09:22:38.024Z,57.04
2019-02-10T09:23:38.176Z,76.86
2019-02-10T09:24:39.383Z,66.87
2019-02-10T09:25:38.463Z,84.76
2019-02-10T09:26:38.626Z,90.56
2019-02-10T09:27:38.837Z,57.52
2019-02-10T09:29:30.094Z,68.16
2019-02-10T09:30:30.231Z,69.29
2019-02-10T09:34:10.856Z,79.28
2019-02-10T09:35:11.009Z,71.54
2019-02-10T09:36:11.162Z,79.28
2019-02-10T09:37:11.318Z,70.42
2019-02-10T09:38:11.468Z,70.25
2019-02-10T09:39:11.639Z,65.42
2019-02-10T09:40:11.799Z,71.54
2019-02-10T09:41:11.982Z,74.12
2019-02-10T09:42:12.168Z,87.50
2019-02-10T09:43:12.339Z,84.27
2019-02-10T09:44:12.481Z,50.60
2019-02-10T09:45:12.636Z,69.77
2019-02-10T09:46:12.777Z,71.06
2019-02-10T09:47:12.938Z,68.00
2019-02-10T09:48:13.106Z,51.24
2019-02-10T09:49:13.266Z,68.48
2019-02-10T09:50:13.484Z,71.06
2019-02-10T09:51:13.641Z,54.95
2019-02-10T09:52:13.798Z,77.67
2019-02-10T09:53:13.957Z,56.56
2019-02-10T09:54:14.118Z,53.17
2019-02-10T09:55:14.290Z,63.49
2019-02-10T09:56:14.450Z,70.58
2019-02-10T09:57:14.601Z,71.70
2019-02-10T09:58:14.772Z,55.59
2019-02-10T09:59:14.947Z,44.96
2019-02-10T10:00:15.096Z,42.70
2019-02-10T10:01:15.250Z,42.70
2019-02-10T10:02:15.399Z,58.81
2019-02-10T10:03:15.595Z,55.75
2019-02-10T10:04:15.756Z,65.74
2019-02-10T10:05:15.899Z,63.81
2019-02-10T10:06:16.069Z,50.60
2019-02-10T10:07:16.210Z,47.21
2019-02-10T10:08:16.366Z,56.72
2019-02-10T10:09:19.308Z,51.24
2019-02-10T10:10:16.686Z,49.95
2019-02-10T10:11:16.827Z,48.34
2019-02-10T10:12:17.017Z,55.75
2019-02-10T10:13:17.180Z,66.87
2019-02-10T10:14:17.330Z,61.71
2019-02-10T10:15:17.480Z,62.84
2019-02-10T10:16:17.637Z,66.23
2019-02-10T10:17:17.783Z,67.35
2019-02-10T10:18:18.013Z,70.42
2019-02-10T10:19:18.244Z,77.67
2019-02-10T10:20:18.398Z,73.64
2019-02-10T10:21:18.541Z,51.56
2019-02-10T10:22:18.688Z,70.09
2019-02-10T10:23:18.843Z,68.00
2019-02-10T10:24:19.023Z,81.05
2019-02-10T10:25:19.173Z,74.93
2019-02-10T10:26:19.322Z,80.57
2019-02-10T10:27:19.489Z,72.99
2019-02-10T10:28:19.629Z,72.83
2019-02-10T10:29:19.800Z,71.38
2019-02-10T10:30:19.956Z,72.83
2019-02-10T10:31:20.103Z,75.73
2019-02-10T10:32:20.259Z,68.96
2019-02-10T10:33:20.413Z,66.23
2019-02-10T10:34:20.595Z,61.07
2019-02-10T10:35:20.809Z,77.50
2019-02-10T10:36:20.957Z,71.54
2019-02-10T10:37:21.106Z,59.94
2019-02-10T10:38:21.262Z,70.09
2019-02-10T10:39:27.228Z,73.32
2019-02-10T10:40:22.546Z,77.83
2019-02-10T10:41:21.687Z,70.25
2019-02-10T10:42:21.844Z,74.28
2019-02-10T10:43:21.987Z,61.39
2019-02-10T10:44:22.153Z,55.91
2019-02-10T10:45:22.306Z,85.72
2019-02-10T10:46:22.458Z,85.88
2019-02-10T10:47:22.608Z,76.38
2019-02-10T10:48:22.756Z,74.28
2019-02-10T10:49:22.916Z,83.14
2019-02-10T10:50:23.066Z,94.58
2019-02-10T10:51:23.218Z,72.67
2019-02-10T10:52:23.361Z,73.80
2019-02-10T10:53:23.517Z,62.68
2019-02-10T10:54:23.686Z,62.20
2019-02-10T10:55:23.850Z,69.61
2019-02-10T10:56:24.004Z,62.20
2019-02-10T10:57:25.188Z,68.80
2019-02-10T10:58:24.291Z,55.59
2019-02-10T10:59:24.455Z,56.24
2019-02-10T11:00:24.608Z,74.93
2019-02-10T11:01:25.583Z,77.18
2019-02-10T11:02:24.961Z,66.23
2019-02-10T11:03:25.125Z,68.64
2019-02-10T11:04:25.308Z,56.40
2019-02-10T11:05:25.470Z,61.55
2019-02-10T11:06:25.628Z,62.52
2019-02-10T11:07:25.787Z,63.33
2019-02-10T11:08:25.945Z,68.64
2019-02-10T11:09:26.117Z,68.48
2019-02-10T11:10:28.039Z,77.83
2019-02-10T11:11:26.482Z,77.34
2019-02-10T11:12:26.655Z,68.64
2019-02-10T11:13:26.812Z,63.33
2019-02-10T11:14:26.973Z,60.59
2019-02-10T11:15:27.135Z,67.35
2019-02-10T11:16:27.291Z,64.29
2019-02-10T11:17:27.458Z,70.90
2019-02-10T11:18:27.609Z,59.94
2019-02-10T11:19:27.764Z,64.45
2019-02-10T11:20:27.928Z,59.14
2019-02-10T11:21:28.081Z,57.36
2019-02-10T11:22:28.236Z,59.30
2019-02-10T11:23:28.391Z,58.33
2019-02-10T11:24:28.998Z,74.60
2019-02-10T11:25:28.705Z,69.61
2019-02-10T11:26:28.852Z,59.78
2019-02-10T11:27:29.000Z,60.42
2019-02-10T11:28:29.154Z,73.32
2019-02-10T11:29:29.290Z,66.55
2019-02-10T11:30:29.456Z,70.25
2019-02-10T11:31:29.604Z,63.65
2019-02-10T11:32:29.765Z,55.11
2019-02-10T11:33:29.920Z,64.13
2019-02-10T11:34:30.072Z,60.75
2019-02-10T11:35:30.316Z,73.32
2019-02-10T11:36:31.272Z,77.99
2019-02-10T11:37:31.159Z,65.10
2019-02-10T11:38:30.862Z,73.80
2019-02-10T11:39:31.018Z,76.38
2019-02-10T11:40:31.186Z,92.01
2019-02-10T11:41:31.346Z,71.06
2019-02-10T11:42:31.516Z,70.58
2019-02-10T11:43:31.678Z,58.17
2019-02-10T11:44:31.834Z,63.65
2019-02-10T11:45:32.000Z,89.27
2019-02-10T11:46:32.157Z,65.58
2019-02-10T11:47:32.309Z,59.62
2019-02-10T11:48:32.462Z,70.42
2019-02-10T11:49:32.619Z,72.51
2019-02-10T11:50:32.769Z,74.77
2019-02-10T13:45:52.593Z,78.31
2019-02-10T13:46:52.763Z,82.98
2019-02-10T13:47:52.939Z,65.10
2019-02-10T13:48:53.095Z,69.77
2019-02-10T13:49:53.248Z,72.67
2019-02-10T13:50:53.408Z,57.52
2019-02-10T13:51:53.567Z,66.06
2019-02-10T13:52:53.708Z,60.75
2019-02-10T13:53:53.845Z,72.03
2019-02-10T13:54:53.991Z,67.19
2019-02-10T13:55:54.136Z,58.81
2019-02-10T13:56:54.263Z,62.04
2019-02-10T13:57:54.387Z,62.68
2019-02-10T13:58:54.523Z,64.13
2019-02-10T13:59:54.688Z,58.17
2019-02-10T14:00:54.728Z,68.96
2019-02-10T14:01:54.855Z,88.78
2019-02-10T14:02:54.991Z,86.85
2019-02-10T14:03:55.122Z,61.71
2019-02-10T14:04:55.243Z,60.91
2019-02-10T14:05:55.360Z,54.62
2019-02-10T14:06:55.471Z,61.39
2019-02-10T14:07:55.707Z,63.00
2019-02-10T14:08:55.701Z,63.49
2019-02-10T14:09:55.819Z,59.78
2019-02-10T14:10:55.940Z,53.66
2019-02-10T14:11:56.071Z,58.65
2019-02-10T14:12:56.206Z,66.23
2019-02-10T14:13:56.309Z,67.03
2019-02-10T14:14:56.433Z,71.06
2019-02-10T14:15:56.555Z,51.40
2019-02-10T14:16:56.676Z,56.56
2019-02-10T14:17:56.808Z,59.78
2019-02-10T14:18:56.948Z,58.81
2019-02-10T14:19:57.072Z,78.96
2019-02-10T14:20:57.195Z,85.72
2019-02-10T14:21:58.070Z,86.69
2019-02-10T14:22:57.445Z,88.14
2019-02-10T14:24:23.266Z,75.41
2019-02-10T14:25:23.401Z,68.16
2019-02-10T14:26:23.537Z,102.00
2019-02-10T14:27:23.671Z,104.25
2019-02-10T14:28:23.870Z,68.00
2019-02-10T14:29:24.006Z,73.96
2019-02-10T14:30:24.138Z,68.32
2019-02-10T14:31:24.275Z,70.25
2019-02-10T14:32:24.390Z,80.41
2019-02-10T14:33:24.544Z,85.24
2019-02-10T14:34:24.676Z,66.39
2019-02-10T14:35:24.819Z,71.06
2019-02-10T14:36:24.929Z,68.64
2019-02-10T14:37:25.063Z,59.46
2019-02-10T14:38:25.208Z,62.20
2019-02-10T14:39:25.354Z,84.43
2019-02-10T14:40:33.234Z,67.19
2019-02-10T14:41:26.603Z,57.85
2019-02-10T14:42:25.758Z,60.10
2019-02-10T14:43:25.911Z,62.20
2019-02-10T14:44:26.046Z,67.51
2019-02-10T14:45:26.182Z,63.97
2019-02-10T14:46:26.320Z,81.69
2019-02-10T14:47:26.457Z,72.99
2019-02-10T14:48:26.615Z,67.03
2019-02-10T14:49:26.759Z,65.58
2019-02-10T14:50:26.909Z,68.00
2019-02-10T14:51:27.046Z,68.00
2019-02-10T14:52:27.182Z,72.99
2019-02-10T14:53:29.278Z,68.96
2019-02-10T14:54:27.411Z,71.06
2019-02-10T14:55:27.558Z,58.33
2019-02-10T14:56:27.695Z,63.81
2019-02-10T14:57:27.816Z,63.81
2019-02-10T14:58:27.948Z,69.13
2019-02-10T14:59:28.094Z,59.46
2019-02-10T15:00:28.228Z,63.16
2019-02-10T15:01:28.359Z,69.93
2019-02-10T15:02:28.495Z,67.84
2019-02-10T15:03:28.631Z,65.90
2019-02-10T15:04:28.782Z,69.93
2019-02-10T15:05:28.916Z,72.51
2019-02-10T15:06:29.025Z,77.34
2019-02-10T15:07:29.149Z,74.93
2019-02-10T15:08:29.279Z,58.17
2019-02-10T15:09:29.414Z,61.23
2019-02-10T15:10:29.543Z,62.52
2019-02-10T15:11:29.680Z,51.08
2019-02-10T15:12:31.107Z,55.43
2019-02-10T15:13:29.979Z,59.14
2019-02-10T15:14:30.137Z,52.05
2019-02-10T15:15:30.276Z,52.53
2019-02-10T15:16:30.415Z,93.30
2019-02-10T15:17:30.569Z,56.56
2019-02-10T15:18:30.708Z,69.61
2019-02-10T15:19:30.865Z,57.52
2019-02-10T15:20:31.005Z,64.45
2019-02-10T15:21:31.153Z,65.58
2019-02-10T15:22:31.295Z,78.63
2019-02-10T15:23:31.417Z,63.81
2019-02-10T15:24:31.572Z,83.95
2019-02-10T15:25:31.716Z,82.02
2019-02-10T15:26:31.853Z,63.81
2019-02-10T15:27:32.000Z,66.55
2019-02-10T15:28:32.134Z,59.78
2019-02-10T15:29:32.283Z,70.25
2019-02-10T15:30:32.421Z,59.46
2019-02-10T15:31:32.557Z,72.03
2019-02-10T15:32:32.687Z,63.65
2019-02-10T15:33:32.823Z,61.71
2019-02-10T15:34:32.981Z,74.77
2019-02-10T15:35:33.121Z,78.47
2019-02-10T15:36:33.254Z,52.05
2019-02-10T15:37:33.384Z,61.71
2019-02-10T15:38:33.518Z,52.37
2019-02-10T15:39:33.658Z,53.50
2019-02-10T15:40:33.794Z,54.62
2019-02-10T15:41:33.926Z,59.30
2019-02-10T15:42:34.061Z,58.17
2019-02-10T15:43:34.189Z,64.78
2019-02-10T15:44:34.331Z,62.68
2019-02-10T15:45:34.471Z,75.89
2019-02-10T15:46:34.571Z,62.52
2019-02-10T15:47:34.709Z,62.20
2019-02-10T15:48:34.827Z,48.66
2019-02-10T15:49:34.967Z,55.27
2019-02-10T15:50:35.103Z,60.42
2019-02-10T15:51:37.246Z,65.42
2019-02-10T15:52:35.443Z,62.04
2019-02-10T15:53:35.590Z,62.36
2019-02-10T15:54:35.770Z,69.45
2019-02-10T15:55:35.912Z,57.04
2019-02-10T15:56:36.049Z,55.43
2019-02-10T15:57:36.182Z,44.79
2019-02-10T15:58:36.327Z,52.53
2019-02-10T15:59:36.475Z,62.52
2019-02-10T16:00:36.609Z,51.72
2019-02-10T16:01:36.745Z,50.27
2019-02-10T16:02:36.885Z,53.50
2019-02-10T16:03:37.019Z,50.60
2019-02-10T16:04:37.175Z,49.95
2019-02-10T16:05:37.308Z,64.29
2019-02-10T16:06:37.447Z,57.52
2019-02-10T16:07:37.581Z,59.46
2019-02-10T16:08:37.717Z,58.01
2019-02-10T16:09:37.870Z,56.24
2019-02-10T16:10:38.020Z,55.11
2019-02-10T16:11:38.131Z,56.40
2019-02-10T16:12:38.267Z,50.76
2019-02-10T16:13:38.403Z,53.33
2019-02-10T16:14:38.536Z,44.96
2019-02-10T16:15:38.664Z,43.18
2019-02-10T16:16:38.808Z,44.63
2019-02-10T16:17:38.937Z,45.44
2019-02-10T16:18:39.783Z,56.56
2019-02-10T16:19:39.158Z,65.58
2019-02-10T16:20:39.316Z,53.98
2019-02-10T16:21:39.430Z,62.36
2019-02-10T16:22:39.556Z,54.79
2019-02-10T16:23:39.681Z,64.45
2019-02-10T16:24:39.813Z,60.91
2019-02-10T16:25:40.939Z,61.07
2019-02-10T16:26:40.014Z,57.69
2019-02-10T16:27:40.152Z,58.81
2019-02-10T16:28:40.285Z,52.21
2019-02-10T16:29:40.431Z,55.75
2019-02-10T16:30:40.571Z,52.21
2019-02-10T16:31:40.682Z,51.08
2019-02-10T16:32:40.798Z,48.18
2019-02-10T16:33:40.932Z,59.14
2019-02-10T16:34:41.051Z,45.44
2019-02-10T16:35:41.197Z,64.61
2019-02-10T16:36:41.334Z,62.84
2019-02-10T16:37:41.469Z,46.57
2019-02-10T16:38:41.608Z,49.15
2019-02-10T16:39:41.758Z,50.27
2019-02-10T16:40:41.906Z,50.11
2019-02-10T16:41:42.022Z,58.81
2019-02-10T16:42:42.159Z,66.39
2019-02-10T16:43:42.274Z,53.82
2019-02-10T16:44:42.404Z,57.52
2019-02-10T16:45:42.547Z,75.25
2019-02-10T16:46:42.695Z,68.00
2019-02-10T16:47:42.832Z,64.13
2019-02-10T16:48:42.964Z,85.08
2019-02-10T16:49:43.099Z,70.09
2019-02-10T16:50:43.248Z,61.87
2019-02-10T16:51:43.383Z,73.80
2019-02-10T16:52:43.520Z,71.22
2019-02-10T16:53:43.657Z,68.48
2019-02-10T16:54:43.796Z,82.34
2019-02-10T16:55:43.945Z,63.49
2019-02-10T16:56:44.090Z,69.13
2019-02-10T16:57:44.208Z,61.87
2019-02-10T16:58:44.350Z,66.23
2019-02-10T16:59:44.498Z,65.90
2019-02-10T17:00:44.645Z,55.27
2019-02-10T17:01:44.784Z,54.46
2019-02-10T17:02:44.929Z,58.97
2019-02-10T17:03:45.065Z,59.14
2019-02-10T17:04:45.182Z,54.95
2019-02-10T17:05:45.331Z,53.98
2019-02-10T17:06:45.479Z,53.66
2019-02-10T17:07:45.610Z,60.42
2019-02-10T17:08:45.737Z,55.11
2019-02-10T17:09:45.865Z,67.51
2019-02-10T17:10:46.010Z,60.42
2019-02-10T17:11:46.149Z,62.68
2019-02-10T17:12:46.284Z,54.14
2019-02-10T17:13:46.440Z,63.33
2019-02-10T17:14:46.574Z,57.69
2019-02-10T17:15:46.718Z,70.25
2019-02-10T17:16:46.881Z,61.87
2019-02-10T17:17:47.013Z,63.16
2019-02-10T17:18:47.130Z,57.04
2019-02-10T17:19:47.271Z,92.81
2019-02-10T17:20:47.417Z,97.32
2019-02-10T17:21:47.555Z,57.36
2019-02-10T17:22:47.690Z,66.55
2019-02-10T17:23:47.823Z,60.26
2019-02-10T17:24:47.962Z,61.87
2019-02-10T17:25:48.111Z,45.12
2019-02-10T17:26:48.244Z,70.90
2019-02-10T17:27:48.373Z,60.26
2019-02-10T17:28:48.509Z,94.75
2019-02-10T17:29:48.645Z,73.48
2019-02-10T17:30:48.781Z,61.87
2019-02-10T17:31:48.926Z,89.91
2019-02-10T17:32:49.060Z,71.22
2019-02-10T17:33:49.200Z,71.70
2019-02-10T17:34:49.323Z,77.18
2019-02-10T17:35:49.449Z,73.96
2019-02-10T17:36:49.590Z,60.42
2019-02-10T17:37:49.728Z,76.86
2019-02-10T17:38:49.875Z,67.03
2019-02-10T17:39:50.017Z,79.12
2019-02-10T23:24:45.097Z,64.29
2019-02-10T23:25:45.252Z,63.65
2019-02-10T23:26:46.263Z,48.98
2019-02-10T23:27:45.523Z,67.51
2019-02-10T23:54:32.727Z,92.97
2019-02-10T23:55:32.947Z,48.02
2019-02-10T23:56:33.110Z,67.68
2019-02-10T23:57:33.263Z,66.55
